sensor_id;sensor_type;location;lat;lon;timestamp;pressure;altitude;pressure_sealevel;temperature;humidity
65175;BME280;51761;42.126;24.752;2023-01-19T00:02:01;98748.84;;;12.92;82.04
65175;BME280;51761;42.126;24.752;2023-01-19T00:04:27;98737.06;;;12.84;83.01
65175;BME280;51761;42.126;24.752;2023-01-19T00:06:52;98734.03;;;12.70;84.44
65175;BME280;51761;42.126;24.752;2023-01-19T00:09:18;98744.41;;;12.82;84.42
65175;BME280;51761;42.126;24.752;2023-01-19T00:11:43;98746.16;;;12.67;84.63
65175;BME280;51761;42.126;24.752;2023-01-19T00:14:09;98776.06;;;12.70;85.13
65175;BME280;51761;42.126;24.752;2023-01-19T00:16:35;98739.78;;;12.66;85.11
65175;BME280;51761;42.126;24.752;2023-01-19T00:19:00;98756.72;;;12.63;85.98
65175;BME280;51761;42.126;24.752;2023-01-19T00:21:26;98726.47;;;12.49;85.88
65175;BME280;51761;42.126;24.752;2023-01-19T00:23:51;98755.75;;;12.57;86.15
65175;BME280;51761;42.126;24.752;2023-01-19T00:26:17;98743.13;;;12.53;86.67
65175;BME280;51761;42.126;24.752;2023-01-19T00:28:43;98696.13;;;12.26;87.10
65175;BME280;51761;42.126;24.752;2023-01-19T00:31:10;98746.00;;;12.40;87.45
65175;BME280;51761;42.126;24.752;2023-01-19T00:33:35;98765.97;;;12.30;88.16
65175;BME280;51761;42.126;24.752;2023-01-19T00:36:01;98774.41;;;12.17;88.65
65175;BME280;51761;42.126;24.752;2023-01-19T00:38:27;98746.72;;;11.98;89.35
65175;BME280;51761;42.126;24.752;2023-01-19T00:40:52;98752.22;;;12.01;88.88
65175;BME280;51761;42.126;24.752;2023-01-19T00:43:18;98785.50;;;12.21;89.04
65175;BME280;51761;42.126;24.752;2023-01-19T00:45:44;98771.28;;;12.15;89.16
65175;BME280;51761;42.126;24.752;2023-01-19T00:48:09;98759.19;;;12.18;88.23
65175;BME280;51761;42.126;24.752;2023-01-19T00:50:35;98750.13;;;12.14;87.35
65175;BME280;51761;42.126;24.752;2023-01-19T00:53:00;98769.81;;;12.23;87.29
65175;BME280;51761;42.126;24.752;2023-01-19T00:55:27;98742.06;;;12.16;86.58
65175;BME280;51761;42.126;24.752;2023-01-19T00:57:53;98780.97;;;12.36;86.41
65175;BME280;51761;42.126;24.752;2023-01-19T01:00:19;98777.69;;;12.37;86.54
65175;BME280;51761;42.126;24.752;2023-01-19T01:02:47;98769.63;;;12.39;85.44
65175;BME280;51761;42.126;24.752;2023-01-19T01:05:12;98773.66;;;12.17;86.48
65175;BME280;51761;42.126;24.752;2023-01-19T01:07:39;98757.28;;;12.15;85.74
65175;BME280;51761;42.126;24.752;2023-01-19T01:10:10;98780.69;;;12.21;85.60
65175;BME280;51761;42.126;24.752;2023-01-19T01:12:37;98773.81;;;12.01;86.26
65175;BME280;51761;42.126;24.752;2023-01-19T01:15:08;98776.75;;;11.97;86.68
65175;BME280;51761;42.126;24.752;2023-01-19T01:17:34;98764.69;;;11.88;87.19
65175;BME280;51761;42.126;24.752;2023-01-19T01:20:00;98746.13;;;11.81;86.95
65175;BME280;51761;42.126;24.752;2023-01-19T01:22:26;98755.81;;;11.89;86.43
65175;BME280;51761;42.126;24.752;2023-01-19T01:24:51;98768.56;;;11.90;86.75
65175;BME280;51761;42.126;24.752;2023-01-19T01:27:17;98777.53;;;11.85;87.14
65175;BME280;51761;42.126;24.752;2023-01-19T01:29:42;98767.41;;;11.79;87.74
65175;BME280;51761;42.126;24.752;2023-01-19T01:32:12;98740.78;;;11.74;88.31
65175;BME280;51761;42.126;24.752;2023-01-19T01:34:38;98762.97;;;11.90;88.03
65175;BME280;51761;42.126;24.752;2023-01-19T01:37:04;98773.00;;;11.79;89.09
65175;BME280;51761;42.126;24.752;2023-01-19T01:39:35;98758.13;;;11.69;89.89
65175;BME280;51761;42.126;24.752;2023-01-19T01:42:02;98762.69;;;11.76;89.96
65175;BME280;51761;42.126;24.752;2023-01-19T01:44:52;98775.25;;;11.71;90.05
65175;BME280;51761;42.126;24.752;2023-01-19T01:49:50;98773.44;;;11.77;89.21
65175;BME280;51761;42.126;24.752;2023-01-19T01:52:18;98789.78;;;11.79;89.53
65175;BME280;51761;42.126;24.752;2023-01-19T01:54:45;98795.91;;;11.74;89.45
65175;BME280;51761;42.126;24.752;2023-01-19T01:57:11;98786.75;;;11.73;89.41
65175;BME280;51761;42.126;24.752;2023-01-19T01:59:43;98790.47;;;11.70;88.75
65175;BME280;51761;42.126;24.752;2023-01-19T02:02:21;98791.88;;;11.75;88.78
65175;BME280;51761;42.126;24.752;2023-01-19T02:05:14;98788.88;;;11.82;88.56
65175;BME280;51761;42.126;24.752;2023-01-19T02:10:48;98785.28;;;11.81;88.06
65175;BME280;51761;42.126;24.752;2023-01-19T02:13:36;98804.19;;;11.90;87.72
65175;BME280;51761;42.126;24.752;2023-01-19T02:16:06;98801.31;;;11.81;87.38
65175;BME280;51761;42.126;24.752;2023-01-19T02:18:32;98764.31;;;11.39;89.08
65175;BME280;51761;42.126;24.752;2023-01-19T02:21:10;98781.63;;;11.59;88.92
65175;BME280;51761;42.126;24.752;2023-01-19T02:23:50;98774.69;;;11.51;89.17
65175;BME280;51761;42.126;24.752;2023-01-19T02:26:33;98791.44;;;11.51;88.77
65175;BME280;51761;42.126;24.752;2023-01-19T02:29:08;98782.53;;;11.56;88.36
65175;BME280;51761;42.126;24.752;2023-01-19T02:31:35;98794.28;;;11.64;87.45
65175;BME280;51761;42.126;24.752;2023-01-19T02:34:03;98785.31;;;11.56;85.72
65175;BME280;51761;42.126;24.752;2023-01-19T02:36:52;98767.38;;;11.91;81.39
65175;BME280;51761;42.126;24.752;2023-01-19T02:39:22;98750.31;;;11.98;82.47
65175;BME280;51761;42.126;24.752;2023-01-19T02:41:53;98747.69;;;11.82;82.36
65175;BME280;51761;42.126;24.752;2023-01-19T02:44:20;98775.91;;;12.09;80.09
65175;BME280;51761;42.126;24.752;2023-01-19T02:46:47;98767.94;;;12.20;78.63
65175;BME280;51761;42.126;24.752;2023-01-19T02:49:12;98777.06;;;12.33;76.42
65175;BME280;51761;42.126;24.752;2023-01-19T02:51:38;98787.47;;;12.54;75.76
65175;BME280;51761;42.126;24.752;2023-01-19T03:00:20;98787.88;;;12.65;75.85
65175;BME280;51761;42.126;24.752;2023-01-19T03:08:31;98804.03;;;12.40;78.95
65175;BME280;51761;42.126;24.752;2023-01-19T03:11:07;98810.97;;;12.35;79.29
65175;BME280;51761;42.126;24.752;2023-01-19T03:13:46;98801.44;;;12.33;79.38
65175;BME280;51761;42.126;24.752;2023-01-19T03:16:20;98776.34;;;12.20;79.44
65175;BME280;51761;42.126;24.752;2023-01-19T03:18:54;98814.50;;;12.14;80.12
65175;BME280;51761;42.126;24.752;2023-01-19T03:21:24;98818.16;;;11.90;80.99
65175;BME280;51761;42.126;24.752;2023-01-19T03:23:51;98801.34;;;12.02;80.83
65175;BME280;51761;42.126;24.752;2023-01-19T03:26:23;98789.19;;;11.84;80.89
65175;BME280;51761;42.126;24.752;2023-01-19T03:28:50;98799.81;;;11.89;81.09
65175;BME280;51761;42.126;24.752;2023-01-19T03:31:20;98808.00;;;11.71;82.20
65175;BME280;51761;42.126;24.752;2023-01-19T03:33:53;98809.69;;;11.81;82.40
65175;BME280;51761;42.126;24.752;2023-01-19T03:36:25;98789.88;;;11.75;82.26
65175;BME280;51761;42.126;24.752;2023-01-19T03:38:54;98791.56;;;11.73;82.19
65175;BME280;51761;42.126;24.752;2023-01-19T03:41:23;98816.97;;;11.66;82.49
65175;BME280;51761;42.126;24.752;2023-01-19T03:43:50;98817.63;;;11.70;82.48
65175;BME280;51761;42.126;24.752;2023-01-19T03:46:18;98804.53;;;11.54;82.15
65175;BME280;51761;42.126;24.752;2023-01-19T03:48:44;98834.75;;;11.59;82.40
65175;BME280;51761;42.126;24.752;2023-01-19T03:51:10;98818.19;;;11.65;82.00
65175;BME280;51761;42.126;24.752;2023-01-19T03:53:38;98803.53;;;11.73;81.21
65175;BME280;51761;42.126;24.752;2023-01-19T03:56:05;98809.91;;;11.61;82.01
65175;BME280;51761;42.126;24.752;2023-01-19T03:58:32;98800.28;;;11.62;81.45
65175;BME280;51761;42.126;24.752;2023-01-19T04:00:57;98811.59;;;11.71;81.36
65175;BME280;51761;42.126;24.752;2023-01-19T04:03:22;98821.22;;;11.33;82.90
65175;BME280;51761;42.126;24.752;2023-01-19T04:05:48;98843.81;;;11.38;82.69
65175;BME280;51761;42.126;24.752;2023-01-19T04:08:13;98819.88;;;11.25;82.73
65175;BME280;51761;42.126;24.752;2023-01-19T04:10:39;98833.28;;;11.42;82.49
65175;BME280;51761;42.126;24.752;2023-01-19T04:13:04;98838.22;;;11.38;82.71
65175;BME280;51761;42.126;24.752;2023-01-19T04:15:30;98832.81;;;11.44;82.44
65175;BME280;51761;42.126;24.752;2023-01-19T04:17:57;98834.72;;;11.47;82.53
65175;BME280;51761;42.126;24.752;2023-01-19T04:20:24;98825.56;;;11.46;82.20
65175;BME280;51761;42.126;24.752;2023-01-19T04:22:51;98831.94;;;11.47;82.35
65175;BME280;51761;42.126;24.752;2023-01-19T04:25:16;98827.25;;;11.69;81.41
65175;BME280;51761;42.126;24.752;2023-01-19T04:27:42;98829.50;;;11.61;81.59
65175;BME280;51761;42.126;24.752;2023-01-19T04:30:08;98821.91;;;11.62;80.86
65175;BME280;51761;42.126;24.752;2023-01-19T04:32:34;98803.09;;;11.50;81.25
65175;BME280;51761;42.126;24.752;2023-01-19T04:35:00;98829.38;;;11.65;81.36
65175;BME280;51761;42.126;24.752;2023-01-19T04:37:26;98829.84;;;11.51;82.04
65175;BME280;51761;42.126;24.752;2023-01-19T04:39:51;98832.41;;;11.45;82.52
65175;BME280;51761;42.126;24.752;2023-01-19T04:42:16;98830.25;;;11.49;82.21
65175;BME280;51761;42.126;24.752;2023-01-19T04:44:42;98807.78;;;11.28;82.61
65175;BME280;51761;42.126;24.752;2023-01-19T04:47:08;98832.06;;;11.43;82.51
65175;BME280;51761;42.126;24.752;2023-01-19T04:49:33;98823.91;;;11.24;82.19
65175;BME280;51761;42.126;24.752;2023-01-19T04:52:03;98845.47;;;11.23;82.30
65175;BME280;51761;42.126;24.752;2023-01-19T04:54:28;98822.34;;;11.23;82.43
65175;BME280;51761;42.126;24.752;2023-01-19T04:56:54;98818.41;;;11.20;82.64
65175;BME280;51761;42.126;24.752;2023-01-19T04:59:20;98811.56;;;11.09;82.49
65175;BME280;51761;42.126;24.752;2023-01-19T05:01:46;98831.50;;;11.23;82.38
65175;BME280;51761;42.126;24.752;2023-01-19T05:04:11;98846.78;;;11.19;82.30
65175;BME280;51761;42.126;24.752;2023-01-19T05:06:37;98845.03;;;11.25;81.85
65175;BME280;51761;42.126;24.752;2023-01-19T05:09:03;98797.28;;;11.19;81.42
65175;BME280;51761;42.126;24.752;2023-01-19T05:11:32;98831.72;;;11.16;82.35
65175;BME280;51761;42.126;24.752;2023-01-19T05:13:57;98804.63;;;10.89;82.20
65175;BME280;51761;42.126;24.752;2023-01-19T05:16:23;98854.97;;;11.13;82.38
65175;BME280;51761;42.126;24.752;2023-01-19T05:18:48;98855.06;;;11.22;81.81
65175;BME280;51761;42.126;24.752;2023-01-19T05:21:14;98818.50;;;11.04;81.73
65175;BME280;51761;42.126;24.752;2023-01-19T05:23:39;98846.59;;;11.13;81.74
65175;BME280;51761;42.126;24.752;2023-01-19T05:26:05;98845.34;;;11.14;81.82
65175;BME280;51761;42.126;24.752;2023-01-19T05:28:31;98829.47;;;10.99;82.11
65175;BME280;51761;42.126;24.752;2023-01-19T05:30:57;98849.91;;;10.96;82.84
65175;BME280;51761;42.126;24.752;2023-01-19T05:33:23;98842.75;;;10.95;82.52
65175;BME280;51761;42.126;24.752;2023-01-19T05:35:52;98862.09;;;11.02;82.59
65175;BME280;51761;42.126;24.752;2023-01-19T05:38:19;98861.19;;;11.05;82.51
65175;BME280;51761;42.126;24.752;2023-01-19T05:40:45;98834.91;;;11.02;81.95
65175;BME280;51761;42.126;24.752;2023-01-19T05:43:11;98835.19;;;11.20;81.71
65175;BME280;51761;42.126;24.752;2023-01-19T05:45:37;98858.09;;;11.15;81.70
65175;BME280;51761;42.126;24.752;2023-01-19T05:48:03;98867.56;;;11.05;82.12
65175;BME280;51761;42.126;24.752;2023-01-19T05:50:29;98853.59;;;10.93;82.13
65175;BME280;51761;42.126;24.752;2023-01-19T05:52:55;98870.94;;;11.13;81.82
65175;BME280;51761;42.126;24.752;2023-01-19T05:55:21;98846.00;;;11.06;81.34
65175;BME280;51761;42.126;24.752;2023-01-19T05:57:46;98847.91;;;11.09;80.85
65175;BME280;51761;42.126;24.752;2023-01-19T06:00:12;98863.78;;;11.12;80.77
65175;BME280;51761;42.126;24.752;2023-01-19T06:02:38;98856.97;;;11.13;80.47
65175;BME280;51761;42.126;24.752;2023-01-19T06:05:04;98874.53;;;11.26;80.53
65175;BME280;51761;42.126;24.752;2023-01-19T06:07:29;98912.53;;;11.23;80.65
65175;BME280;51761;42.126;24.752;2023-01-19T06:09:56;98891.97;;;11.17;80.51
65175;BME280;51761;42.126;24.752;2023-01-19T06:12:22;98887.13;;;11.05;81.31
65175;BME280;51761;42.126;24.752;2023-01-19T06:14:47;98887.31;;;10.98;81.66
65175;BME280;51761;42.126;24.752;2023-01-19T06:17:13;98892.97;;;11.23;80.89
65175;BME280;51761;42.126;24.752;2023-01-19T06:19:38;98889.88;;;11.46;80.23
65175;BME280;51761;42.126;24.752;2023-01-19T06:22:05;98892.06;;;11.67;79.18
65175;BME280;51761;42.126;24.752;2023-01-19T06:24:30;98883.97;;;11.94;78.05
65175;BME280;51761;42.126;24.752;2023-01-19T06:26:57;98856.31;;;11.96;77.55
65175;BME280;51761;42.126;24.752;2023-01-19T06:29:22;98889.88;;;12.55;75.61
65175;BME280;51761;42.126;24.752;2023-01-19T06:31:48;98890.97;;;12.91;74.07
65175;BME280;51761;42.126;24.752;2023-01-19T06:34:13;98867.75;;;13.12;72.21
65175;BME280;51761;42.126;24.752;2023-01-19T06:36:39;98906.31;;;13.51;71.53
65175;BME280;51761;42.126;24.752;2023-01-19T06:39:05;98883.72;;;13.94;69.48
65175;BME280;51761;42.126;24.752;2023-01-19T06:41:32;98893.25;;;14.36;67.56
65175;BME280;51761;42.126;24.752;2023-01-19T06:43:57;98909.97;;;14.66;66.32
65175;BME280;51761;42.126;24.752;2023-01-19T06:46:23;98913.28;;;14.92;65.35
65175;BME280;51761;42.126;24.752;2023-01-19T06:48:49;98922.47;;;15.37;63.74
65175;BME280;51761;42.126;24.752;2023-01-19T06:51:14;98909.09;;;15.65;62.48
65175;BME280;51761;42.126;24.752;2023-01-19T06:53:39;98906.16;;;15.50;62.08
65175;BME280;51761;42.126;24.752;2023-01-19T06:56:05;98915.94;;;15.73;62.02
65175;BME280;51761;42.126;24.752;2023-01-19T06:58:32;98908.19;;;16.00;61.26
65175;BME280;51761;42.126;24.752;2023-01-19T07:01:03;98912.03;;;16.44;60.14
65175;BME280;51761;42.126;24.752;2023-01-19T07:03:29;98913.78;;;16.65;58.77
65175;BME280;51761;42.126;24.752;2023-01-19T07:05:54;98908.13;;;16.65;59.02
65175;BME280;51761;42.126;24.752;2023-01-19T07:08:21;98904.38;;;17.06;57.43
65175;BME280;51761;42.126;24.752;2023-01-19T07:10:46;98913.63;;;17.21;57.48
65175;BME280;51761;42.126;24.752;2023-01-19T07:13:12;98934.13;;;17.45;56.62
65175;BME280;51761;42.126;24.752;2023-01-19T07:15:37;98934.03;;;17.68;56.23
65175;BME280;51761;42.126;24.752;2023-01-19T07:18:03;98929.94;;;17.83;55.07
65175;BME280;51761;42.126;24.752;2023-01-19T07:20:36;98935.63;;;18.18;55.04
65175;BME280;51761;42.126;24.752;2023-01-19T07:23:02;98914.59;;;18.33;53.82
65175;BME280;51761;42.126;24.752;2023-01-19T07:25:28;98931.53;;;18.68;53.15
65175;BME280;51761;42.126;24.752;2023-01-19T07:27:58;98930.19;;;18.83;51.52
65175;BME280;51761;42.126;24.752;2023-01-19T07:30:24;98907.31;;;19.07;71.45
65175;BME280;51761;42.126;24.752;2023-01-19T07:32:50;98900.84;;;19.77;71.76
65175;BME280;51761;42.126;24.752;2023-01-19T07:35:16;98905.34;;;20.20;71.56
65175;BME280;51761;42.126;24.752;2023-01-19T07:37:41;98924.50;;;20.30;50.23
65175;BME280;51761;42.126;24.752;2023-01-19T07:40:07;98899.66;;;20.56;58.43
65175;BME280;51761;42.126;24.752;2023-01-19T07:42:33;98925.63;;;20.86;52.35
65175;BME280;51761;42.126;24.752;2023-01-19T07:44:58;98922.63;;;20.58;48.13
65175;BME280;51761;42.126;24.752;2023-01-19T07:47:25;98921.41;;;21.23;59.88
65175;BME280;51761;42.126;24.752;2023-01-19T07:49:50;98907.25;;;21.45;55.60
65175;BME280;51761;42.126;24.752;2023-01-19T07:52:16;98905.78;;;21.88;56.19
65175;BME280;51761;42.126;24.752;2023-01-19T07:54:42;98918.72;;;22.00;54.23
65175;BME280;51761;42.126;24.752;2023-01-19T07:57:07;98909.34;;;21.55;47.60
65175;BME280;51761;42.126;24.752;2023-01-19T07:59:33;98902.69;;;21.91;48.43
65175;BME280;51761;42.126;24.752;2023-01-19T08:01:58;98905.00;;;22.15;49.91
65175;BME280;51761;42.126;24.752;2023-01-19T08:04:25;98914.00;;;22.35;44.63
65175;BME280;51761;42.126;24.752;2023-01-19T08:06:51;98913.75;;;22.33;43.69
65175;BME280;51761;42.126;24.752;2023-01-19T08:09:16;98919.97;;;22.48;42.96
65175;BME280;51761;42.126;24.752;2023-01-19T08:11:42;98915.59;;;22.25;43.31
65175;BME280;51761;42.126;24.752;2023-01-19T08:14:08;98914.28;;;22.21;43.59
65175;BME280;51761;42.126;24.752;2023-01-19T08:16:34;98921.25;;;22.63;44.24
65175;BME280;51761;42.126;24.752;2023-01-19T08:18:59;98897.16;;;22.64;42.38
65175;BME280;51761;42.126;24.752;2023-01-19T08:21:25;98915.06;;;22.16;43.12
65175;BME280;51761;42.126;24.752;2023-01-19T08:23:52;98933.19;;;22.18;45.49
65175;BME280;51761;42.126;24.752;2023-01-19T08:26:26;98917.09;;;22.59;43.13
65175;BME280;51761;42.126;24.752;2023-01-19T08:29:01;98915.78;;;22.71;41.66
65175;BME280;51761;42.126;24.752;2023-01-19T08:31:27;98910.72;;;23.04;43.01
65175;BME280;51761;42.126;24.752;2023-01-19T08:33:53;98926.09;;;22.79;41.59
65175;BME280;51761;42.126;24.752;2023-01-19T08:36:19;98908.94;;;22.96;40.45
65175;BME280;51761;42.126;24.752;2023-01-19T08:38:47;98929.00;;;23.36;41.18
65175;BME280;51761;42.126;24.752;2023-01-19T08:41:13;98927.47;;;22.29;41.19
65175;BME280;51761;42.126;24.752;2023-01-19T08:43:40;98906.53;;;22.21;42.07
65175;BME280;51761;42.126;24.752;2023-01-19T08:46:06;98867.00;;;22.07;42.06
65175;BME280;51761;42.126;24.752;2023-01-19T08:48:31;98893.34;;;22.07;42.74
65175;BME280;51761;42.126;24.752;2023-01-19T08:50:57;98923.84;;;22.34;41.81
65175;BME280;51761;42.126;24.752;2023-01-19T08:53:23;98881.44;;;22.25;41.94
65175;BME280;51761;42.126;24.752;2023-01-19T08:55:52;98895.91;;;22.49;41.60
65175;BME280;51761;42.126;24.752;2023-01-19T08:58:18;98897.53;;;23.01;41.87
65175;BME280;51761;42.126;24.752;2023-01-19T09:00:44;98881.19;;;23.18;40.92
65175;BME280;51761;42.126;24.752;2023-01-19T09:03:11;98900.16;;;23.51;39.37
65175;BME280;51761;42.126;24.752;2023-01-19T09:05:38;98879.72;;;23.82;39.31
65175;BME280;51761;42.126;24.752;2023-01-19T09:08:07;98887.91;;;23.96;38.58
65175;BME280;51761;42.126;24.752;2023-01-19T09:10:33;98889.91;;;24.07;38.43
65175;BME280;51761;42.126;24.752;2023-01-19T09:13:07;98869.47;;;24.03;38.28
65175;BME280;51761;42.126;24.752;2023-01-19T09:15:36;98873.44;;;24.47;37.94
65175;BME280;51761;42.126;24.752;2023-01-19T09:18:07;98884.03;;;24.52;36.02
65175;BME280;51761;42.126;24.752;2023-01-19T09:20:34;98858.84;;;24.75;36.01
65175;BME280;51761;42.126;24.752;2023-01-19T09:23:03;98857.69;;;25.07;35.55
65175;BME280;51761;42.126;24.752;2023-01-19T09:25:29;98882.72;;;25.38;35.42
65175;BME280;51761;42.126;24.752;2023-01-19T09:27:55;98879.34;;;25.40;37.15
65175;BME280;51761;42.126;24.752;2023-01-19T09:30:20;98868.72;;;25.72;36.16
65175;BME280;51761;42.126;24.752;2023-01-19T09:32:46;98853.41;;;25.69;36.27
65175;BME280;51761;42.126;24.752;2023-01-19T09:35:12;98855.59;;;25.94;35.72
65175;BME280;51761;42.126;24.752;2023-01-19T09:37:38;98852.94;;;26.15;35.00
65175;BME280;51761;42.126;24.752;2023-01-19T09:40:05;98863.06;;;26.29;36.01
65175;BME280;51761;42.126;24.752;2023-01-19T09:42:44;98850.28;;;26.30;33.13
65175;BME280;51761;42.126;24.752;2023-01-19T09:45:22;98846.78;;;25.92;33.68
65175;BME280;51761;42.126;24.752;2023-01-19T09:47:51;98869.56;;;25.85;35.56
65175;BME280;51761;42.126;24.752;2023-01-19T09:50:27;98866.06;;;26.36;33.18
65175;BME280;51761;42.126;24.752;2023-01-19T09:52:59;98847.91;;;26.60;35.35
65175;BME280;51761;42.126;24.752;2023-01-19T09:55:27;98843.75;;;26.74;35.45
65175;BME280;51761;42.126;24.752;2023-01-19T09:57:53;98825.69;;;26.53;33.00
65175;BME280;51761;42.126;24.752;2023-01-19T10:00:19;98816.78;;;26.56;34.08
65175;BME280;51761;42.126;24.752;2023-01-19T10:03:15;98829.88;;;26.78;33.50
65175;BME280;51761;42.126;24.752;2023-01-19T10:05:46;98834.25;;;26.79;33.37
65175;BME280;51761;42.126;24.752;2023-01-19T10:10:50;98835.59;;;26.78;33.94
65175;BME280;51761;42.126;24.752;2023-01-19T10:13:38;98829.72;;;26.96;32.92
65175;BME280;51761;42.126;24.752;2023-01-19T10:19:15;98814.63;;;27.09;33.03
65175;BME280;51761;42.126;24.752;2023-01-19T10:21:43;98803.78;;;27.28;31.12
65175;BME280;51761;42.126;24.752;2023-01-19T10:24:17;98801.44;;;27.60;31.55
65175;BME280;51761;42.126;24.752;2023-01-19T10:26:48;98803.41;;;27.64;30.17
65175;BME280;51761;42.126;24.752;2023-01-19T10:29:36;98810.91;;;27.88;30.44
65175;BME280;51761;42.126;24.752;2023-01-19T10:34:41;98790.00;;;27.80;29.32
65175;BME280;51761;42.126;24.752;2023-01-19T10:37:24;98804.41;;;27.87;30.32
65175;BME280;51761;42.126;24.752;2023-01-19T10:39:55;98787.47;;;27.76;30.61
65175;BME280;51761;42.126;24.752;2023-01-19T10:42:21;98793.47;;;28.06;30.37
65175;BME280;51761;42.126;24.752;2023-01-19T10:44:48;98786.84;;;28.11;28.30
65175;BME280;51761;42.126;24.752;2023-01-19T10:47:19;98792.84;;;28.00;28.60
65175;BME280;51761;42.126;24.752;2023-01-19T10:49:46;98780.34;;;27.70;28.54
65175;BME280;51761;42.126;24.752;2023-01-19T10:52:34;98791.13;;;27.77;29.58
65175;BME280;51761;42.126;24.752;2023-01-19T10:55:05;98770.59;;;27.93;29.75
65175;BME280;51761;42.126;24.752;2023-01-19T10:57:36;98788.91;;;28.31;28.03
65175;BME280;51761;42.126;24.752;2023-01-19T11:00:27;98771.03;;;28.25;29.29
65175;BME280;51761;42.126;24.752;2023-01-19T11:02:52;98760.34;;;28.05;29.25
65175;BME280;51761;42.126;24.752;2023-01-19T11:05:26;98763.25;;;28.33;28.83
65175;BME280;51761;42.126;24.752;2023-01-19T11:07:52;98775.72;;;28.36;27.29
65175;BME280;51761;42.126;24.752;2023-01-19T11:10:22;98770.69;;;28.29;27.96
65175;BME280;51761;42.126;24.752;2023-01-19T11:13:12;98770.34;;;28.32;28.02
65175;BME280;51761;42.126;24.752;2023-01-19T11:15:42;98776.50;;;28.36;26.93
65175;BME280;51761;42.126;24.752;2023-01-19T11:18:31;98774.53;;;28.59;26.07
65175;BME280;51761;42.126;24.752;2023-01-19T11:21:00;98772.84;;;28.36;26.41
65175;BME280;51761;42.126;24.752;2023-01-19T11:23:33;98758.34;;;27.72;25.56
65175;BME280;51761;42.126;24.752;2023-01-19T11:26:04;98760.41;;;26.98;22.50
65175;BME280;51761;42.126;24.752;2023-01-19T11:31:18;98744.47;;;25.54;23.40
65175;BME280;51761;42.126;24.752;2023-01-19T11:33:49;98744.13;;;25.08;24.64
65175;BME280;51761;42.126;24.752;2023-01-19T11:38:50;98761.97;;;24.58;24.19
65175;BME280;51761;42.126;24.752;2023-01-19T11:41:21;98752.34;;;24.37;24.78
65175;BME280;51761;42.126;24.752;2023-01-19T11:43:59;98757.75;;;24.83;24.60
65175;BME280;51761;42.126;24.752;2023-01-19T11:46:32;98722.47;;;24.99;23.25
65175;BME280;51761;42.126;24.752;2023-01-19T11:49:04;98766.91;;;24.16;24.47
65175;BME280;51761;42.126;24.752;2023-01-19T11:51:42;98756.28;;;23.57;24.55
65175;BME280;51761;42.126;24.752;2023-01-19T11:54:21;98771.41;;;23.76;24.43
65175;BME280;51761;42.126;24.752;2023-01-19T11:56:50;98756.59;;;23.83;24.24
65175;BME280;51761;42.126;24.752;2023-01-19T11:59:18;98756.78;;;24.15;24.12
65175;BME280;51761;42.126;24.752;2023-01-19T12:01:48;98766.56;;;23.95;24.13
65175;BME280;51761;42.126;24.752;2023-01-19T12:04:20;98766.09;;;23.91;24.68
65175;BME280;51761;42.126;24.752;2023-01-19T12:06:52;98734.06;;;24.04;24.56
65175;BME280;51761;42.126;24.752;2023-01-19T12:26:41;98742.97;;;24.42;22.69
65175;BME280;51761;42.126;24.752;2023-01-19T12:29:14;98736.69;;;24.25;23.26
65175;BME280;51761;42.126;24.752;2023-01-19T12:31:41;98695.34;;;23.90;23.66
65175;BME280;51761;42.126;24.752;2023-01-19T12:36:49;98703.47;;;24.28;23.45
65175;BME280;51761;42.126;24.752;2023-01-19T12:39:20;98719.41;;;24.36;23.32
65175;BME280;51761;42.126;24.752;2023-01-19T12:41:46;98716.78;;;24.38;23.61
65175;BME280;51761;42.126;24.752;2023-01-19T12:51:39;98707.03;;;24.71;22.81
65175;BME280;51761;42.126;24.752;2023-01-19T12:54:06;98716.91;;;23.85;23.79
65175;BME280;51761;42.126;24.752;2023-01-19T12:56:35;98664.81;;;23.31;24.44
65175;BME280;51761;42.126;24.752;2023-01-19T12:59:02;98703.94;;;23.31;25.01
65175;BME280;51761;42.126;24.752;2023-01-19T13:01:28;98703.53;;;23.16;24.87
65175;BME280;51761;42.126;24.752;2023-01-19T13:04:31;98703.88;;;23.01;25.38
65175;BME280;51761;42.126;24.752;2023-01-19T13:09:29;98716.56;;;23.06;25.41
65175;BME280;51761;42.126;24.752;2023-01-19T13:21:38;98749.28;;;23.29;25.96
65175;BME280;51761;42.126;24.752;2023-01-19T13:24:05;98733.59;;;23.46;25.44
65175;BME280;51761;42.126;24.752;2023-01-19T13:26:36;98752.69;;;23.81;25.36
65175;BME280;51761;42.126;24.752;2023-01-19T13:29:07;98762.91;;;23.71;25.93
65175;BME280;51761;42.126;24.752;2023-01-19T13:31:37;98732.78;;;23.51;26.19
65175;BME280;51761;42.126;24.752;2023-01-19T13:34:08;98743.59;;;23.58;26.15
65175;BME280;51761;42.126;24.752;2023-01-19T13:36:37;98728.28;;;23.32;26.72
65175;BME280;51761;42.126;24.752;2023-01-19T13:39:12;98741.03;;;23.25;26.48
65175;BME280;51761;42.126;24.752;2023-01-19T13:41:40;98735.69;;;23.11;27.05
65175;BME280;51761;42.126;24.752;2023-01-19T13:44:12;98746.25;;;23.21;26.43
65175;BME280;51761;42.126;24.752;2023-01-19T13:46:39;98742.13;;;23.17;26.39
65175;BME280;51761;42.126;24.752;2023-01-19T13:49:16;98758.31;;;23.33;26.33
65175;BME280;51761;42.126;24.752;2023-01-19T13:51:43;98760.69;;;23.29;26.42
65175;BME280;51761;42.126;24.752;2023-01-19T13:54:14;98746.81;;;23.14;26.50
65175;BME280;51761;42.126;24.752;2023-01-19T13:56:46;98746.19;;;23.27;26.39
65175;BME280;51761;42.126;24.752;2023-01-19T13:59:14;98742.31;;;23.24;26.10
65175;BME280;51761;42.126;24.752;2023-01-19T14:01:41;98716.38;;;22.93;26.37
65175;BME280;51761;42.126;24.752;2023-01-19T14:04:28;98757.66;;;23.16;26.61
65175;BME280;51761;42.126;24.752;2023-01-19T14:06:57;98745.09;;;22.95;26.44
65175;BME280;51761;42.126;24.752;2023-01-19T14:09:24;98742.69;;;23.04;26.55